Mount Isa Airport
YBMA : now visible

Airfield :











YOU CAN JOIN US ON...

 
LOGIN :

Register | Disclaimer

   EN    FR    IT 

 









Legend :    VFR   Marginal VFR   IFR   Intensive IFR   Very Intensive IFR
Visi :
Ceiling :
>= 8 km
>= 3000ft
5 to 8 km
1000 to 3000 ft
1500m to 5 km
500 to 1000 ft
800 to 1500m
200 to 500 ft
< 800m
< 200 ft
Symbols :   Thunderstorms  Fog  Heavy snow  Heavy precipitations  Wind > 20 kt






- Airport Elevation : 1121 ft
- IATA code : ISA


YBMA - Mount Isa

CURRENT METAR :
  • 210100Z AUTO 05011KT 9999 // BKN032 OVC100 30/21 Q1011

EXPIRED METARs :
  • 210030Z AUTO 05014KT 9999 // BKN110 30/21 Q1011 RF00.0/000.0
  • 210000Z AUTO 05017KT 9999 // OVC110 29/21 Q1011 RF00.0/000.0
  • 202330Z AUTO 05015KT 9999 // BKN110 29/21 Q1011 RF00.0/000.0
  • 202300Z AUTO 05013KT 9999 // SCT110 29/22 Q1010
  • 202230Z AUTO 05013KT 9999 // NCD 28/22 Q1010 RF00.0/005.0

TAF TAF YBMA
Valid from the 21 at 00:00 until the 21 at 12:00 UTC


202250Z 2100/2112 06012KT 9999 SCT040
PROB30
TEMPO 2104/2111 VRB20G35KT 1000 TSRA BKN010 SCT060CB
YBBB FIR / Oceania



MET'MAP, your aeronautical weather chart ! - Copyright ORBIFLY December 2007 - Disclaimer

ORBIFLY MET'MAP TEAM :

Programming & Development : Alexandra Zaïnal
Concept & original design : Baudouin d'Aumeries
Assistance for programming : Marc-Olivier Méhu
Technical & hardware support : Manuel Goepfert

Contact : metmap@orbifly.com




SOURCES & CREDITS :

   NOAA       Earth
Advisory